Time;durP1;ratioP1;P1;durP2;ratioP2;P2;SDS_P1;SDS_P2;PMS_P1;PMS_P2;Temp;Humidity;BMP_temperature;BMP_pressure;BME280_temperature;BME280_humidity;BME280_pressure;Samples;Min_cycle;Max_cycle;Signal;HPM_P1;HPM_P2
2022/07/27 00:00:38;;;;;;;;;;;;;;;30.56;35.10;94213.34;5026799;28;7805;-62
2022/07/27 00:03:06;;;;;;;;;;;;;;;30.57;35.29;94220.34;5022220;28;7244;-62
2022/07/27 00:05:32;;;;;;;;;;;;;;;30.57;35.68;94223.88;5022714;28;6971;-62
2022/07/27 00:08:13;;;;;;;;;;;;;;;30.54;36.11;94213.88;5022512;28;6991;-62
2022/07/27 00:10:39;;;;;;;;;;;;;;;30.56;35.56;94210.56;5018371;28;7387;-62
2022/07/27 00:13:10;;;;;;;;;;;;;;;30.53;35.16;94210.38;5014720;28;7305;-62
2022/07/27 00:15:36;;;;;;;;;;;;;;;30.54;36.03;94209.06;5031636;28;7673;-62
2022/07/27 00:18:04;;;;;;;;;;;;;;;30.54;35.70;94197.97;5017971;28;9158;-62
2022/07/27 00:20:33;;;;;;;;;;;;;;;30.54;35.89;94186.84;5015998;28;7358;-62
2022/07/27 00:23:00;;;;;;;;;;;;;;;30.56;35.92;94188.34;5016300;28;7006;-62
2022/07/27 00:25:28;;;;;;;;;;;;;;;30.55;36.06;94193.16;5032356;28;9105;-62
2022/07/27 00:27:58;;;;;;;;;;;;;;;30.54;35.54;94189.63;5018202;28;9137;-62
2022/07/27 00:30:27;;;;;;;;;;;;;;;30.53;35.79;94190.94;5030981;28;9364;-62
2022/07/27 00:32:59;;;;;;;;;;;;;;;30.51;35.67;94182.38;5016601;28;9789;-62
2022/07/27 00:35:25;;;;;;;;;;;;;;;30.53;36.14;94190.94;5032813;28;7630;-62
2022/07/27 00:37:52;;;;;;;;;;;;;;;30.53;36.09;94185.38;5016123;28;7257;-62
2022/07/27 00:40:18;;;;;;;;;;;;;;;30.55;35.98;94187.59;5016149;28;7273;-62
2022/07/27 00:42:44;;;;;;;;;;;;;;;30.54;36.25;94191.66;5014477;28;8993;-62
2022/07/27 00:45:10;;;;;;;;;;;;;;;30.54;35.86;94192.41;5016089;28;7234;-62
2022/07/27 00:47:36;;;;;;;;;;;;;;;30.54;35.97;94191.66;5015641;28;8793;-62
2022/07/27 00:50:03;;;;;;;;;;;;;;;30.54;36.23;94191.66;5014530;28;7110;-62
2022/07/27 00:52:30;;;;;;;;;;;;;;;30.52;35.57;94189.44;5015839;28;7175;-62
2022/07/27 00:54:58;;;;;;;;;;;;;;;30.54;35.98;94180.56;5016042;28;7029;-62
2022/07/27 00:57:26;;;;;;;;;;;;;;;30.53;35.43;94185.38;5022875;28;7215;-62
2022/07/27 00:59:53;;;;;;;;;;;;;;;30.53;36.56;94174.28;5015937;28;7233;-62
2022/07/27 01:02:19;;;;;;;;;;;;;;;30.52;35.48;94172.78;5015421;28;7015;-62
2022/07/27 01:04:45;;;;;;;;;;;;;;;30.52;36.13;94170.00;5015762;28;7226;-62
2022/07/27 01:07:25;;;;;;;;;;;;;;;30.51;35.76;94165.72;5021540;28;7235;-62
2022/07/27 01:10:00;;;;;;;;;;;;;;;30.50;35.25;94158.72;5024743;28;7044;-62
2022/07/27 01:12:30;;;;;;;;;;;;;;;30.51;35.63;94165.72;5020288;28;8991;-62
2022/07/27 01:14:59;;;;;;;;;;;;;;;30.51;35.80;94156.69;5038747;28;9451;-62
2022/07/27 01:17:33;;;;;;;;;;;;;;;30.49;35.29;94160.00;5014703;28;7311;-62
2022/07/27 01:19:59;;;;;;;;;;;;;;;30.50;35.67;94158.72;5032724;28;9025;-62
2022/07/27 01:22:27;;;;;;;;;;;;;;;30.49;36.35;94148.88;5017267;28;7094;-62
2022/07/27 01:24:53;;;;;;;;;;;;;;;30.49;34.99;94157.22;5015166;28;9122;-62
2022/07/27 01:27:19;;;;;;;;;;;;;;;30.48;35.62;94155.00;5014830;28;7362;-62
2022/07/27 01:29:47;;;;;;;;;;;;;;;30.48;36.08;94166.84;5017182;28;9170;-62
2022/07/27 01:32:18;;;;;;;;;;;;;;;30.49;35.21;94173.16;5027201;28;8908;-62
2022/07/27 01:34:50;;;;;;;;;;;;;;;30.49;35.67;94162.03;5023725;28;7181;-62
2022/07/27 01:37:24;;;;;;;;;;;;;;;30.47;36.16;94156.31;5022004;28;7024;-62
2022/07/27 01:39:55;;;;;;;;;;;;;;;30.48;36.34;94163.31;5022081;28;7357;-62
2022/07/27 01:43:00;;;;;;;;;;;;;;;30.47;36.86;94175.72;5021706;28;6992;-62
2022/07/27 01:45:46;;;;;;;;;;;;;;;30.47;35.59;94164.63;4983389;28;7229;-62
2022/07/27 01:48:24;;;;;;;;;;;;;;;30.46;35.78;94168.69;5009114;28;9579;-62
2022/07/27 01:51:00;;;;;;;;;;;;;;;30.45;36.68;94159.59;4988489;28;9061;-62
2022/07/27 01:53:38;;;;;;;;;;;;;;;30.45;35.47;94156.09;5007855;28;8244;-62
2022/07/27 01:56:21;;;;;;;;;;;;;;;30.44;35.26;94165.72;5009986;28;7084;-62
2022/07/27 01:59:11;;;;;;;;;;;;;;;30.42;36.56;94163.50;4991644;28;7351;-62
2022/07/27 02:01:50;;;;;;;;;;;;;;;30.41;36.69;94162.00;5001805;28;7104;-62
2022/07/27 02:04:17;;;;;;;;;;;;;;;30.41;35.58;94164.03;4991510;28;7253;-62
2022/07/27 02:06:43;;;;;;;;;;;;;;;30.40;35.37;94165.34;4990240;28;7162;-62
2022/07/27 02:09:08;;;;;;;;;;;;;;;30.40;36.04;94173.66;4991748;28;8992;-62
2022/07/27 02:14:27;;;;;;;;;;;;;;;30.39;35.35;94181.22;5007817;28;7243;-62
2022/07/27 02:16:54;;;;;;;;;;;;;;;30.38;35.35;94182.50;5014020;28;7379;-62
2022/07/27 02:19:36;;;;;;;;;;;;;;;30.38;35.73;94173.47;5019296;28;7041;-62
2022/07/27 02:22:07;;;;;;;;;;;;;;;30.37;36.43;94178.25;5021301;28;7097;-62
2022/07/27 02:24:42;;;;;;;;;;;;;;;30.37;35.25;94169.19;5035689;28;8168;-62
2022/07/27 02:27:10;;;;;;;;;;;;;;;30.35;35.64;94175.31;5021076;28;7931;-62
2022/07/27 02:29:45;;;;;;;;;;;;;;;30.37;35.05;94169.19;5019201;28;9801;-62
2022/07/27 02:32:11;;;;;;;;;;;;;;;30.34;35.08;94162.69;5037754;28;7115;-62
2022/07/27 02:34:42;;;;;;;;;;;;;;;30.35;35.14;94152.34;5023182;28;7208;-62
2022/07/27 02:37:08;;;;;;;;;;;;;;;30.34;34.95;94162.69;5019033;28;6966;-62
2022/07/27 02:39:34;;;;;;;;;;;;;;;30.35;34.50;94161.44;5019116;28;9168;-62
2022/07/27 02:42:02;;;;;;;;;;;;;;;30.33;34.69;94158.47;5018047;28;9124;-62
2022/07/27 02:44:28;;;;;;;;;;;;;;;30.33;34.32;94152.91;5016049;28;9265;-62
2022/07/27 02:46:54;;;;;;;;;;;;;;;30.34;34.38;94161.97;5015702;28;7247;-62
2022/07/27 02:49:21;;;;;;;;;;;;;;;30.31;34.89;94149.94;5012518;28;9463;-62
2022/07/27 02:51:49;;;;;;;;;;;;;;;30.33;35.67;94150.13;5014715;28;9168;-62
2022/07/27 02:54:20;;;;;;;;;;;;;;;30.33;34.11;94152.16;5030755;28;7211;-62
2022/07/27 02:56:51;;;;;;;;;;;;;;;30.33;34.94;94138.28;5023286;28;6979;-62
2022/07/27 02:59:17;;;;;;;;;;;;;;;30.32;34.57;94142.38;5016765;28;8923;-62
2022/07/27 03:01:49;;;;;;;;;;;;;;;30.30;34.03;94139.34;5020070;28;7251;-62
2022/07/27 03:04:17;;;;;;;;;;;;;;;30.30;34.46;94139.34;5022064;28;7149;-62
2022/07/27 03:06:46;;;;;;;;;;;;;;;30.29;34.46;94138.63;5037598;28;7035;-62
2022/07/27 03:09:12;;;;;;;;;;;;;;;30.30;33.98;94144.88;5025482;28;7163;-62
2022/07/27 03:11:50;;;;;;;;;;;;;;;30.29;33.98;94143.41;5021212;28;7236;-62
2022/07/27 03:14:32;;;;;;;;;;;;;;;30.24;34.58;94142.28;5039017;28;7275;-62
2022/07/27 03:17:01;;;;;;;;;;;;;;;30.26;34.21;94142.47;5025680;28;7402;-62
2022/07/27 03:19:30;;;;;;;;;;;;;;;30.26;33.46;94145.25;5023572;28;7092;-62
2022/07/27 03:21:56;;;;;;;;;;;;;;;30.24;34.73;94142.28;5039996;28;7044;-62
2022/07/27 03:24:30;;;;;;;;;;;;;;;30.26;33.77;94144.50;5037884;28;6998;-62
2022/07/27 03:27:08;;;;;;;;;;;;;;;30.22;33.87;94136.53;5024363;28;7245;-62
2022/07/27 03:29:39;;;;;;;;;;;;;;;30.23;34.07;94131.75;5019560;28;7137;-62
2022/07/27 03:32:08;;;;;;;;;;;;;;;30.23;32.98;94140.78;5031876;28;7233;-62
2022/07/27 03:34:45;;;;;;;;;;;;;;;30.22;33.99;94141.34;5021044;28;9165;-62
2022/07/27 03:37:17;;;;;;;;;;;;;;;30.21;33.84;94143.38;5031583;28;7283;-62
2022/07/27 03:39:49;;;;;;;;;;;;;;;30.18;33.72;94138.94;5021432;28;7198;-62
2022/07/27 03:42:19;;;;;;;;;;;;;;;30.19;33.41;94140.41;5020685;28;8459;-62
2022/07/27 03:44:45;;;;;;;;;;;;;;;30.18;33.78;94136.16;5020745;28;7266;-62
2022/07/27 03:47:24;;;;;;;;;;;;;;;30.18;33.74;94143.72;5028268;28;7627;-62
2022/07/27 03:50:03;;;;;;;;;;;;;;;30.20;33.67;94141.91;5028294;28;8823;-62
2022/07/27 03:52:31;;;;;;;;;;;;;;;30.18;34.16;94143.72;5023360;28;9048;-62
2022/07/27 03:55:26;;;;;;;;;;;;;;;30.17;33.24;94140.22;5021963;28;8893;-62
2022/07/27 03:58:11;;;;;;;;;;;;;;;30.17;33.04;94139.47;5019702;28;7110;-62
2022/07/27 04:00:52;;;;;;;;;;;;;;;30.16;34.11;94138.00;5003639;28;9468;-62
2022/07/27 04:03:27;;;;;;;;;;;;;;;30.14;33.55;94140.56;5013123;28;6944;-62
2022/07/27 04:05:53;;;;;;;;;;;;;;;30.14;33.21;94141.31;5022716;28;8235;-62
2022/07/27 04:08:20;;;;;;;;;;;;;;;30.14;33.95;94149.66;5021765;28;8744;-62
2022/07/27 04:10:47;;;;;;;;;;;;;;;30.13;33.56;94147.41;5006164;28;7315;-62
2022/07/27 04:13:24;;;;;;;;;;;;;;;30.14;33.18;94137.81;5000780;28;7389;-62
2022/07/27 04:15:51;;;;;;;;;;;;;;;30.11;33.77;94128.53;5000495;28;9153;-62
2022/07/27 04:18:21;;;;;;;;;;;;;;;30.11;33.03;94131.31;5011967;28;6987;-62
2022/07/27 04:20:47;;;;;;;;;;;;;;;30.11;33.63;94127.78;5016897;28;7430;-62
2022/07/27 04:23:13;;;;;;;;;;;;;;;30.11;33.30;94128.53;4999849;28;7577;-62
2022/07/27 04:25:39;;;;;;;;;;;;;;;30.10;33.55;94123.53;5006128;28;7491;-62
2022/07/27 04:28:10;;;;;;;;;;;;;;;30.09;33.98;94122.03;5006203;28;8771;-62
2022/07/27 04:30:36;;;;;;;;;;;;;;;30.09;34.16;94128.34;5006685;28;9101;-62
2022/07/27 04:33:04;;;;;;;;;;;;;;;30.09;32.87;94120.03;4999022;28;8883;-62
2022/07/27 04:35:44;;;;;;;;;;;;;;;30.10;33.11;94129.81;5019192;28;9541;-62
2022/07/27 04:38:20;;;;;;;;;;;;;;;30.08;33.39;94135.16;5020308;28;7315;-62
2022/07/27 04:40:46;;;;;;;;;;;;;;;30.09;33.38;94136.66;5037271;28;7008;-62
2022/07/27 04:43:12;;;;;;;;;;;;;;;30.10;32.99;94131.88;5010357;28;7024;-62
2022/07/27 04:45:38;;;;;;;;;;;;;;;30.08;33.28;94134.44;5016395;28;7193;-62
2022/07/27 04:48:05;;;;;;;;;;;;;;;30.06;33.67;94134.25;5017161;28;9440;-62
2022/07/27 04:50:38;;;;;;;;;;;;;;;30.07;33.26;94136.47;5018583;28;7246;-62
2022/07/27 04:53:06;;;;;;;;;;;;;;;30.07;34.14;94135.72;5017381;28;9079;-62
2022/07/27 04:55:32;;;;;;;;;;;;;;;30.08;33.86;94140.00;5015000;28;7238;-62
2022/07/27 04:58:04;;;;;;;;;;;;;;;30.08;34.23;94128.91;5014983;28;7045;-62
2022/07/27 05:00:32;;;;;;;;;;;;;;;30.08;33.50;94137.22;5016090;28;8128;-62
2022/07/27 05:03:02;;;;;;;;;;;;;;;30.08;33.58;94137.94;5017190;28;9187;-62
2022/07/27 05:05:29;;;;;;;;;;;;;;;30.09;33.06;94136.66;5015356;28;8824;-62
2022/07/27 05:07:57;;;;;;;;;;;;;;;30.08;33.35;94131.69;5033645;28;7236;-62
2022/07/27 05:10:24;;;;;;;;;;;;;;;30.07;34.35;94130.94;5017740;28;7288;-62
2022/07/27 05:12:52;;;;;;;;;;;;;;;30.06;33.20;94134.97;5020516;28;7202;-62
2022/07/27 05:15:20;;;;;;;;;;;;;;;30.05;33.93;94136.28;5018292;28;9495;-62
2022/07/27 05:18:02;;;;;;;;;;;;;;;30.05;33.74;94141.06;5019683;28;6991;-62
2022/07/27 05:20:30;;;;;;;;;;;;;;;30.06;33.28;94139.81;5021697;28;8425;-62
2022/07/27 05:22:56;;;;;;;;;;;;;;;30.06;33.86;94143.28;5021972;28;7037;-62
2022/07/27 05:25:41;;;;;;;;;;;;;;;30.06;34.21;94146.06;5019690;28;8752;-62
2022/07/27 05:28:10;;;;;;;;;;;;;;;30.05;33.29;94147.38;5020037;28;7165;-62
2022/07/27 05:30:47;;;;;;;;;;;;;;;30.04;33.72;94147.91;5027081;28;7306;-62
2022/07/27 05:33:44;;;;;;;;;;;;;;;30.03;33.94;94149.94;5021999;28;9077;-62
2022/07/27 05:36:22;;;;;;;;;;;;;;;30.01;34.15;94149.75;5024936;28;7149;-62
2022/07/27 05:38:49;;;;;;;;;;;;;;;29.99;33.54;94152.34;5011467;28;7152;-61
2022/07/27 05:41:28;;;;;;;;;;;;;;;30.01;34.64;94160.09;5027252;28;8742;-62
2022/07/27 05:44:03;;;;;;;;;;;;;;;29.99;34.79;94155.13;5002591;28;9151;-62
2022/07/27 05:46:59;;;;;;;;;;;;;;;29.97;34.87;94163.22;5001061;28;8458;-62
2022/07/27 05:49:33;;;;;;;;;;;;;;;29.97;35.04;94162.47;4943736;28;7034;-62
2022/07/27 05:52:04;;;;;;;;;;;;;;;29.96;34.35;94161.00;4961650;28;7575;-62
2022/07/27 05:54:43;;;;;;;;;;;;;;;29.98;34.18;94166.72;4960663;28;7350;-61
2022/07/27 05:57:09;;;;;;;;;;;;;;;29.99;35.00;94166.19;4960107;28;7072;-62
2022/07/27 05:59:45;;;;;;;;;;;;;;;30.00;34.42;94167.69;4943205;28;7447;-62
2022/07/27 06:02:22;;;;;;;;;;;;;;;29.99;34.76;94173.78;4932998;28;9171;-62
2022/07/27 06:04:50;;;;;;;;;;;;;;;29.99;34.87;94173.78;4961482;28;7060;-62
2022/07/27 06:10:23;;;;;;;;;;;;;;;29.98;34.20;94169.50;4919554;29;7006;-62
2022/07/27 06:12:50;;;;;;;;;;;;;;;30.00;35.99;94175.25;4900183;29;7286;-62
2022/07/27 06:15:21;;;;;;;;;;;;;;;29.99;35.10;94177.28;4885236;29;7332;-62
2022/07/27 06:17:51;;;;;;;;;;;;;;;29.97;34.99;94168.75;4892349;29;7341;-62
2022/07/27 06:20:19;;;;;;;;;;;;;;;29.96;34.86;94175.59;4887431;29;7331;-61
2022/07/27 06:22:49;;;;;;;;;;;;;;;29.97;35.60;94171.53;4886979;29;7013;-60
2022/07/27 06:25:18;;;;;;;;;;;;;;;29.99;35.54;94176.56;4907157;28;7251;-61
2022/07/27 06:27:44;;;;;;;;;;;;;;;29.99;35.44;94182.84;4941302;28;7249;-60
2022/07/27 06:30:19;;;;;;;;;;;;;;;29.98;35.65;94175.81;4939294;28;7238;-60
2022/07/27 06:32:46;;;;;;;;;;;;;;;29.98;35.18;94178.56;4957577;28;6989;-60
2022/07/27 06:35:15;;;;;;;;;;;;;;;29.99;34.72;94182.84;4959608;28;7678;-60
2022/07/27 06:37:51;;;;;;;;;;;;;;;29.97;35.11;94179.84;4943299;28;7312;-60
2022/07/27 06:40:19;;;;;;;;;;;;;;;29.96;35.04;94181.16;4968618;28;7268;-60
2022/07/27 06:42:45;;;;;;;;;;;;;;;29.93;35.58;94190.53;5034694;28;9132;-60
2022/07/27 06:45:13;;;;;;;;;;;;;;;29.93;35.62;94187.06;5017056;28;8108;-60
2022/07/27 06:47:40;;;;;;;;;;;;;;;29.92;34.64;94191.84;5032745;28;9043;-60
2022/07/27 06:50:07;;;;;;;;;;;;;;;29.93;34.94;94185.00;5018015;28;9091;-61
2022/07/27 06:52:34;;;;;;;;;;;;;;;29.95;35.24;94182.44;5020834;28;7646;-60
2022/07/27 06:55:08;;;;;;;;;;;;;;;29.95;34.78;94187.97;5019995;28;7228;-60
2022/07/27 06:57:34;;;;;;;;;;;;;;;29.95;34.83;94184.47;5019133;28;7259;-61
2022/07/27 07:00:00;;;;;;;;;;;;;;;29.96;35.32;94186.69;5041227;28;7160;-61
2022/07/27 07:02:28;;;;;;;;;;;;;;;29.96;34.93;94183.91;5020880;28;9232;-61
2022/07/27 07:04:54;;;;;;;;;;;;;;;29.96;34.99;94183.91;5024083;28;9184;-61
2022/07/27 07:07:20;;;;;;;;;;;;;;;29.97;35.18;94195.78;5024733;28;7465;-60
2022/07/27 07:09:48;;;;;;;;;;;;;;;29.96;35.01;94192.25;5023585;28;7048;-60
2022/07/27 07:12:17;;;;;;;;;;;;;;;29.95;34.37;94195.56;5020707;28;7556;-60
2022/07/27 07:15:15;;;;;;;;;;;;;;;29.96;35.29;94194.28;5023316;28;9400;-60
2022/07/27 07:17:42;;;;;;;;;;;;;;;29.92;35.21;94188.31;5000616;28;7274;-60
2022/07/27 07:20:10;;;;;;;;;;;;;;;29.96;34.59;94197.03;4988996;28;7021;-60
2022/07/27 07:22:38;;;;;;;;;;;;;;;29.93;34.92;94192.59;4998277;28;8916;-61
2022/07/27 07:25:07;;;;;;;;;;;;;;;29.93;35.24;94189.81;4997564;28;7970;-61
2022/07/27 07:27:35;;;;;;;;;;;;;;;29.91;34.89;94190.34;4988035;28;7220;-61
2022/07/27 07:30:01;;;;;;;;;;;;;;;29.94;35.40;94194.81;4979149;28;7275;-61
2022/07/27 07:32:30;;;;;;;;;;;;;;;29.95;34.37;94195.56;4986875;28;8083;-60
2022/07/27 07:34:59;;;;;;;;;;;;;;;29.95;35.39;94193.53;4988653;28;7305;-60
2022/07/27 07:37:25;;;;;;;;;;;;;;;29.94;34.47;94194.81;4979421;28;7248;-60
2022/07/27 07:39:51;;;;;;;;;;;;;;;29.93;34.69;94196.09;4996650;28;7187;-60
2022/07/27 07:42:17;;;;;;;;;;;;;;;29.95;34.64;94198.34;4989093;28;8804;-60
2022/07/27 07:44:44;;;;;;;;;;;;;;;29.93;34.28;94198.88;4987750;28;7594;-60
2022/07/27 07:47:10;;;;;;;;;;;;;;;29.93;34.77;94198.88;4987352;28;7507;-61
2022/07/27 07:49:36;;;;;;;;;;;;;;;29.95;34.94;94201.13;4996121;28;7247;-60
2022/07/27 07:52:03;;;;;;;;;;;;;;;29.94;35.17;94192.03;4988347;28;9135;-61
2022/07/27 07:54:29;;;;;;;;;;;;;;;29.97;34.30;94204.09;5018640;28;8787;-61
2022/07/27 07:56:55;;;;;;;;;;;;;;;29.97;35.52;94201.31;5033332;28;9132;-61
2022/07/27 07:59:21;;;;;;;;;;;;;;;29.95;35.02;94196.28;5017204;28;7261;-61
2022/07/27 08:02:02;;;;;;;;;;;;;;;29.95;34.75;94199.06;5025197;28;7097;-61
2022/07/27 08:04:30;;;;;;;;;;;;;;;29.96;34.80;94197.78;5027989;28;7490;-61
2022/07/27 08:06:56;;;;;;;;;;;;;;;29.96;35.75;94199.81;5022832;28;9247;-61
2022/07/27 08:09:25;;;;;;;;;;;;;;;29.93;34.56;94190.53;5013762;28;7290;-61
2022/07/27 08:11:53;;;;;;;;;;;;;;;29.95;35.09;94192.78;5029149;28;7111;-61
2022/07/27 08:14:25;;;;;;;;;;;;;;;29.93;35.60;94193.31;5021240;28;7004;-61
2022/07/27 08:17:00;;;;;;;;;;;;;;;29.93;35.24;94189.81;5024693;28;9165;-61
2022/07/27 08:19:30;;;;;;;;;;;;;;;29.94;35.32;94196.84;5023195;28;7030;-61
2022/07/27 08:22:07;;;;;;;;;;;;;;;29.95;34.68;94193.53;5038597;28;7265;-61
2022/07/27 08:24:52;;;;;;;;;;;;;;;29.97;34.51;94190.94;5024549;28;9051;-61
2022/07/27 08:27:21;;;;;;;;;;;;;;;29.96;35.04;94203.34;5021954;28;8488;-61
2022/07/27 08:30:23;;;;;;;;;;;;;;;29.95;34.41;94193.53;5034703;28;7926;-61
2022/07/27 08:32:57;;;;;;;;;;;;;;;29.95;34.85;94193.53;5019471;28;8793;-61
2022/07/27 08:35:34;;;;;;;;;;;;;;;29.98;34.61;94194.47;5018832;28;7123;-61
2022/07/27 08:38:10;;;;;;;;;;;;;;;29.97;35.01;94190.22;5022693;28;7241;-61
2022/07/27 08:40:39;;;;;;;;;;;;;;;29.97;34.69;94196.50;5020146;28;7151;-61
2022/07/27 08:43:07;;;;;;;;;;;;;;;29.94;35.09;94203.13;5037338;28;7190;-61
2022/07/27 08:45:40;;;;;;;;;;;;;;;29.95;35.25;94204.59;5022013;28;7057;-61
2022/07/27 08:48:11;;;;;;;;;;;;;;;29.97;35.27;94195.78;5019513;28;9161;-61
2022/07/27 08:51:08;;;;;;;;;;;;;;;29.97;35.37;94198.53;5026594;28;8988;-61
2022/07/27 08:54:04;;;;;;;;;;;;;;;29.96;36.08;94202.59;5021633;28;9100;-61
2022/07/27 08:56:43;;;;;;;;;;;;;;;29.97;35.29;94198.53;5005007;28;9132;-61
2022/07/27 08:59:10;;;;;;;;;;;;;;;29.97;35.70;94202.03;5002497;28;7322;-61
2022/07/27 09:01:49;;;;;;;;;;;;;;;29.98;35.88;94208.34;5009875;28;9109;-61
2022/07/27 09:04:17;;;;;;;;;;;;;;;29.97;35.56;94201.31;5003579;28;9002;-61
2022/07/27 09:06:46;;;;;;;;;;;;;;;29.97;35.46;94202.03;5018514;28;7511;-61
2022/07/27 09:09:18;;;;;;;;;;;;;;;29.98;35.40;94206.31;5002650;28;9299;-61
2022/07/27 09:12:04;;;;;;;;;;;;;;;29.99;35.38;94202.25;5011668;28;7325;-61
2022/07/27 09:14:43;;;;;;;;;;;;;;;29.97;35.78;94193.00;5017739;28;8811;-61
2022/07/27 09:17:46;;;;;;;;;;;;;;;29.97;35.10;94199.25;5017296;28;7218;-61
2022/07/27 09:20:18;;;;;;;;;;;;;;;29.95;35.54;94204.59;5006328;28;9361;-61
2022/07/27 09:22:51;;;;;;;;;;;;;;;29.94;34.45;94203.13;5005712;28;7180;-61
2022/07/27 09:25:33;;;;;;;;;;;;;;;29.94;34.65;94202.38;5001196;28;9133;-61
2022/07/27 09:27:59;;;;;;;;;;;;;;;29.94;35.54;94196.84;5011153;28;7284;-61
2022/07/27 09:30:41;;;;;;;;;;;;;;;29.94;34.64;94197.59;5018913;28;9063;-61
2022/07/27 09:33:10;;;;;;;;;;;;;;;29.91;34.62;94200.69;5005757;28;7683;-61
2022/07/27 09:35:57;;;;;;;;;;;;;;;29.91;35.19;94193.13;5022121;28;9210;-61
2022/07/27 09:38:24;;;;;;;;;;;;;;;29.93;35.81;94200.91;5036569;28;7640;-61
2022/07/27 09:41:05;;;;;;;;;;;;;;;29.93;35.04;94209.25;5023173;28;9093;-61
2022/07/27 09:43:49;;;;;;;;;;;;;;;29.93;35.63;94198.88;5022588;28;9753;-61
2022/07/27 09:46:41;;;;;;;;;;;;;;;29.94;35.40;94197.59;5036510;28;7442;-61
2022/07/27 09:49:28;;;;;;;;;;;;;;;29.95;34.53;94198.34;5024751;28;7076;-61
2022/07/27 09:51:56;;;;;;;;;;;;;;;29.95;35.08;94201.13;5021134;28;9072;-61
2022/07/27 09:54:45;;;;;;;;;;;;;;;29.94;35.84;94205.16;5027542;28;9153;-61
2022/07/27 09:57:11;;;;;;;;;;;;;;;29.94;34.86;94207.94;5028090;28;9032;-61
2022/07/27 09:59:39;;;;;;;;;;;;;;;29.94;35.18;94200.38;5019273;28;7016;-61
2022/07/27 10:02:10;;;;;;;;;;;;;;;29.94;34.76;94202.38;5022068;28;8785;-61
2022/07/27 10:05:06;;;;;;;;;;;;;;;29.96;35.14;94188.72;5025832;28;9518;-61
2022/07/27 10:07:32;;;;;;;;;;;;;;;29.97;35.73;94206.84;5018679;28;7029;-61
2022/07/27 10:10:03;;;;;;;;;;;;;;;29.94;35.03;94197.59;5018394;28;6985;-61
2022/07/27 10:12:29;;;;;;;;;;;;;;;29.97;35.42;94204.09;5019822;28;7032;-61
2022/07/27 10:15:24;;;;;;;;;;;;;;;29.96;35.75;94202.59;5028035;28;9067;-61
2022/07/27 10:18:11;;;;;;;;;;;;;;;29.95;34.93;94203.88;5022430;28;7037;-61
2022/07/27 10:21:07;;;;;;;;;;;;;;;29.95;35.79;94201.84;5010478;28;6997;-61
2022/07/27 10:24:27;;;;;;;;;;;;;;;29.97;35.56;94201.31;5012423;28;9566;-61
2022/07/27 10:26:54;;;;;;;;;;;;;;;29.98;35.65;94195.22;4912635;29;7144;-61
2022/07/27 10:29:23;;;;;;;;;;;;;;;29.97;35.30;94196.50;4910050;29;9089;-61
2022/07/27 10:31:52;;;;;;;;;;;;;;;29.99;35.27;94193.94;4909949;29;7068;-61
2022/07/27 10:34:35;;;;;;;;;;;;;;;30.00;34.92;94200.97;4909728;29;7136;-61
2022/07/27 10:37:30;;;;;;;;;;;;;;;30.03;35.34;94191.56;4910396;29;7076;-61
2022/07/27 10:42:48;;;;;;;;;;;;;;;30.04;35.50;94187.47;4929908;29;7051;-61
2022/07/27 10:45:40;;;;;;;;;;;;;;;30.04;35.52;94190.25;4931674;29;9229;-61
2022/07/27 10:48:42;;;;;;;;;;;;;;;30.05;35.61;94188.97;4934589;28;7260;-61
2022/07/27 10:51:33;;;;;;;;;;;;;;;30.05;35.11;94188.97;4934759;29;9270;-61
2022/07/27 10:54:45;;;;;;;;;;;;;;;30.05;35.63;94185.44;4947335;28;7172;-61
2022/07/27 10:57:37;;;;;;;;;;;;;;;30.06;35.22;94187.69;4932241;29;9139;-61
2022/07/27 11:00:41;;;;;;;;;;;;;;;30.05;35.85;94185.44;4935227;29;7199;-61
2022/07/27 11:03:08;;;;;;;;;;;;;;;30.04;35.40;94187.47;4995593;28;6977;-61
2022/07/27 11:05:34;;;;;;;;;;;;;;;30.03;35.58;94186.00;5017814;28;7304;-61
2022/07/27 11:08:00;;;;;;;;;;;;;;;30.03;35.38;94188.78;5018295;28;9085;-61
2022/07/27 11:10:30;;;;;;;;;;;;;;;30.02;35.56;94187.28;5018197;28;9409;-61
2022/07/27 11:13:06;;;;;;;;;;;;;;;30.03;35.48;94182.50;5020621;28;7259;-61
2022/07/27 11:16:00;;;;;;;;;;;;;;;30.06;36.01;94184.19;5017501;28;7612;-61
2022/07/27 11:19:07;;;;;;;;;;;;;;;30.06;35.88;94182.13;5019709;28;6985;-61
2022/07/27 11:21:36;;;;;;;;;;;;;;;30.06;35.47;94187.69;5022761;28;9975;-61
2022/07/27 11:24:16;;;;;;;;;;;;;;;30.06;35.51;94182.13;5022615;28;9191;-61
2022/07/27 11:26:46;;;;;;;;;;;;;;;30.07;35.19;94180.84;5024972;28;7438;-61
2022/07/27 11:29:23;;;;;;;;;;;;;;;30.07;35.18;94183.63;5023614;28;9735;-61
2022/07/27 11:31:59;;;;;;;;;;;;;;;30.04;35.41;94173.63;5024430;28;9216;-61
2022/07/27 11:34:35;;;;;;;;;;;;;;;30.07;36.28;94177.34;5020610;28;7238;-61
2022/07/27 11:37:10;;;;;;;;;;;;;;;30.08;36.07;94176.78;5032547;28;7905;-61
2022/07/27 11:39:39;;;;;;;;;;;;;;;30.08;35.58;94168.44;5034741;28;6958;-61
2022/07/27 11:42:07;;;;;;;;;;;;;;;30.08;35.56;94171.22;5018210;28;8513;-61
2022/07/27 11:44:37;;;;;;;;;;;;;;;30.05;35.45;94163.25;5033129;28;6978;-61
2022/07/27 11:47:05;;;;;;;;;;;;;;;30.06;36.04;94168.25;5019832;28;7240;-61
2022/07/27 11:49:34;;;;;;;;;;;;;;;30.08;35.85;94157.34;5018420;28;7211;-61
2022/07/27 11:52:05;;;;;;;;;;;;;;;30.08;36.08;94168.44;5017655;28;7444;-61
2022/07/27 11:54:34;;;;;;;;;;;;;;;30.10;35.77;94165.16;5035540;28;7340;-61
2022/07/27 11:57:14;;;;;;;;;;;;;;;30.08;36.44;94168.44;5017228;28;7234;-61
2022/07/27 11:59:43;;;;;;;;;;;;;;;30.09;36.34;94167.19;5018004;28;7105;-61
2022/07/27 12:02:16;;;;;;;;;;;;;;;30.09;36.46;94161.63;5017638;28;7240;-61
2022/07/27 12:04:45;;;;;;;;;;;;;;;30.09;35.87;94160.88;5032187;28;9174;-61
2022/07/27 12:07:18;;;;;;;;;;;;;;;30.10;35.66;94163.09;5017270;28;7228;-61
2022/07/27 12:09:44;;;;;;;;;;;;;;;30.09;36.56;94158.84;5033088;28;8069;-61
2022/07/27 12:12:14;;;;;;;;;;;;;;;30.10;35.90;94156.84;5017524;28;7009;-61
2022/07/27 12:14:50;;;;;;;;;;;;;;;30.10;36.12;94157.56;5023933;28;7230;-61
2022/07/27 12:17:28;;;;;;;;;;;;;;;30.11;37.14;94153.50;5033222;28;7029;-61
2022/07/27 12:19:54;;;;;;;;;;;;;;;30.12;36.75;94157.03;5032327;28;9450;-61
2022/07/27 12:22:32;;;;;;;;;;;;;;;30.12;36.12;94157.78;5018234;28;7199;-61
2022/07/27 12:25:00;;;;;;;;;;;;;;;30.11;36.69;94153.50;5033634;28;7140;-61
2022/07/27 12:27:27;;;;;;;;;;;;;;;30.11;36.23;94161.81;5033734;28;7597;-61
2022/07/27 12:30:08;;;;;;;;;;;;;;;30.09;36.08;94161.63;5018700;28;7246;-61
2022/07/27 12:32:38;;;;;;;;;;;;;;;30.10;36.48;94160.31;5021602;28;8760;-61
2022/07/27 12:35:17;;;;;;;;;;;;;;;30.11;36.85;94163.84;5033087;28;7242;-61
2022/07/27 12:37:46;;;;;;;;;;;;;;;30.12;36.84;94163.31;5018529;28;7264;-61
2022/07/27 12:40:16;;;;;;;;;;;;;;;30.14;36.88;94160.00;5015682;28;6944;-61
2022/07/27 12:42:44;;;;;;;;;;;;;;;30.12;37.36;94157.03;5016150;28;7366;-61
2022/07/27 12:45:20;;;;;;;;;;;;;;;30.13;36.79;94156.47;5017971;28;7055;-61
2022/07/27 12:47:46;;;;;;;;;;;;;;;30.12;36.91;94157.78;5018816;28;8999;-61
2022/07/27 12:50:32;;;;;;;;;;;;;;;30.13;37.39;94152.94;5016599;28;7227;-61
2022/07/27 12:52:58;;;;;;;;;;;;;;;30.14;36.51;94146.88;5031643;28;7671;-61
2022/07/27 12:55:25;;;;;;;;;;;;;;;30.12;36.94;94152.22;5016188;28;7229;-61
2022/07/27 12:57:54;;;;;;;;;;;;;;;30.13;36.64;94153.69;5016526;28;9050;-61
2022/07/27 13:00:23;;;;;;;;;;;;;;;30.14;37.75;94146.88;5023175;28;8205;-61
2022/07/27 13:02:51;;;;;;;;;;;;;;;30.11;36.86;94139.63;5017255;28;7058;-61
2022/07/27 13:05:17;;;;;;;;;;;;;;;30.15;37.21;94150.38;5015156;28;9376;-60
2022/07/27 13:07:49;;;;;;;;;;;;;;;30.14;37.45;94141.31;5028348;28;7272;-60
2022/07/27 13:10:19;;;;;;;;;;;;;;;30.16;36.61;94141.50;5035984;28;9314;-61
2022/07/27 13:12:55;;;;;;;;;;;;;;;30.18;37.43;94150.03;5021555;28;7269;-60
2022/07/27 13:15:23;;;;;;;;;;;;;;;30.18;36.90;94146.50;5034797;28;7251;-61
2022/07/27 13:17:53;;;;;;;;;;;;;;;30.17;37.74;94140.22;5019215;28;8305;-61
2022/07/27 13:20:41;;;;;;;;;;;;;;;30.16;36.67;94147.06;5021300;28;7524;-61
2022/07/27 13:23:10;;;;;;;;;;;;;;;30.15;37.91;94145.56;5035135;28;9071;-61
2022/07/27 13:25:49;;;;;;;;;;;;;;;30.15;37.30;94142.78;5038756;28;7219;-61
2022/07/27 13:28:15;;;;;;;;;;;;;;;30.14;36.66;94138.56;5016847;28;7148;-61
2022/07/27 13:30:41;;;;;;;;;;;;;;;30.13;37.65;94142.59;5032566;28;7108;-61
2022/07/27 13:33:07;;;;;;;;;;;;;;;30.14;37.26;94137.81;5024186;28;9011;-61
2022/07/27 13:35:33;;;;;;;;;;;;;;;30.17;37.96;94143.00;5014808;28;7002;-61